sensor_id;sensor_type;location;lat;lon;timestamp;temperature;humidity
3275;DHT22;1649;53.672;10.064;2023-02-12T00:01:30;7.00;99.90
3275;DHT22;1649;53.672;10.064;2023-02-12T00:03:56;7.00;99.90
3275;DHT22;1649;53.672;10.064;2023-02-12T00:06:22;7.00;99.90
3275;DHT22;1649;53.672;10.064;2023-02-12T00:08:53;7.00;99.90
3275;DHT22;1649;53.672;10.064;2023-02-12T00:11:25;7.00;99.90
3275;DHT22;1649;53.672;10.064;2023-02-12T00:13:52;7.10;99.90
3275;DHT22;1649;53.672;10.064;2023-02-12T00:16:27;7.00;99.90
3275;DHT22;1649;53.672;10.064;2023-02-12T00:18:54;7.00;99.90
3275;DHT22;1649;53.672;10.064;2023-02-12T00:21:21;7.00;99.90
3275;DHT22;1649;53.672;10.064;2023-02-12T00:23:47;7.00;99.90
3275;DHT22;1649;53.672;10.064;2023-02-12T00:26:17;7.00;99.90
3275;DHT22;1649;53.672;10.064;2023-02-12T00:28:43;7.00;99.90
3275;DHT22;1649;53.672;10.064;2023-02-12T00:31:29;7.00;99.90
3275;DHT22;1649;53.672;10.064;2023-02-12T00:33:56;7.00;99.90
3275;DHT22;1649;53.672;10.064;2023-02-12T00:36:23;6.90;99.90
3275;DHT22;1649;53.672;10.064;2023-02-12T00:38:54;6.90;99.90
3275;DHT22;1649;53.672;10.064;2023-02-12T00:41:21;6.90;99.90
3275;DHT22;1649;53.672;10.064;2023-02-12T00:43:48;6.90;99.90
3275;DHT22;1649;53.672;10.064;2023-02-12T00:46:14;6.90;99.90
3275;DHT22;1649;53.672;10.064;2023-02-12T00:48:39;6.90;99.90
3275;DHT22;1649;53.672;10.064;2023-02-12T00:51:05;6.90;99.90
3275;DHT22;1649;53.672;10.064;2023-02-12T00:53:31;6.80;99.90
3275;DHT22;1649;53.672;10.064;2023-02-12T00:55:57;6.90;99.90
3275;DHT22;1649;53.672;10.064;2023-02-12T00:58:23;6.80;99.90
3275;DHT22;1649;53.672;10.064;2023-02-12T01:00:48;6.80;99.90
3275;DHT22;1649;53.672;10.064;2023-02-12T01:03:14;6.80;99.90
3275;DHT22;1649;53.672;10.064;2023-02-12T01:05:40;6.80;99.90
3275;DHT22;1649;53.672;10.064;2023-02-12T01:08:05;6.70;99.90
3275;DHT22;1649;53.672;10.064;2023-02-12T01:10:31;6.70;99.90
3275;DHT22;1649;53.672;10.064;2023-02-12T01:12:57;6.80;99.90
3275;DHT22;1649;53.672;10.064;2023-02-12T01:15:23;6.80;99.90
3275;DHT22;1649;53.672;10.064;2023-02-12T01:17:52;6.80;99.90
3275;DHT22;1649;53.672;10.064;2023-02-12T01:20:20;6.80;99.90
3275;DHT22;1649;53.672;10.064;2023-02-12T01:22:46;6.80;99.90
3275;DHT22;1649;53.672;10.064;2023-02-12T01:25:12;6.70;99.90
3275;DHT22;1649;53.672;10.064;2023-02-12T01:27:38;6.80;99.90
3275;DHT22;1649;53.672;10.064;2023-02-12T01:30:04;6.80;99.90
3275;DHT22;1649;53.672;10.064;2023-02-12T01:32:30;6.80;99.90
3275;DHT22;1649;53.672;10.064;2023-02-12T01:34:56;6.70;99.90
3275;DHT22;1649;53.672;10.064;2023-02-12T01:37:21;6.70;99.90
3275;DHT22;1649;53.672;10.064;2023-02-12T01:39:47;6.70;99.90
3275;DHT22;1649;53.672;10.064;2023-02-12T01:42:13;6.70;99.90
3275;DHT22;1649;53.672;10.064;2023-02-12T01:44:44;6.70;99.90
3275;DHT22;1649;53.672;10.064;2023-02-12T01:47:29;6.70;99.90
3275;DHT22;1649;53.672;10.064;2023-02-12T01:49:54;6.70;99.90
3275;DHT22;1649;53.672;10.064;2023-02-12T01:52:27;6.70;99.90
3275;DHT22;1649;53.672;10.064;2023-02-12T01:54:54;6.70;99.90
3275;DHT22;1649;53.672;10.064;2023-02-12T01:57:21;6.60;99.90
3275;DHT22;1649;53.672;10.064;2023-02-12T01:59:50;6.60;99.90
3275;DHT22;1649;53.672;10.064;2023-02-12T02:02:17;6.70;99.90
3275;DHT22;1649;53.672;10.064;2023-02-12T02:04:47;6.70;99.90
3275;DHT22;1649;53.672;10.064;2023-02-12T02:07:19;6.60;99.90
3275;DHT22;1649;53.672;10.064;2023-02-12T02:09:44;6.70;99.90
3275;DHT22;1649;53.672;10.064;2023-02-12T02:12:10;6.70;99.90
3275;DHT22;1649;53.672;10.064;2023-02-12T02:14:57;6.70;99.90
3275;DHT22;1649;53.672;10.064;2023-02-12T02:25:56;6.70;99.90
3275;DHT22;1649;53.672;10.064;2023-02-12T02:28:51;6.70;99.90
3275;DHT22;1649;53.672;10.064;2023-02-12T02:39:37;6.70;99.90
3275;DHT22;1649;53.672;10.064;2023-02-12T02:42:26;6.70;99.90
3275;DHT22;1649;53.672;10.064;2023-02-12T02:45:06;6.70;99.90
3275;DHT22;1649;53.672;10.064;2023-02-12T02:47:39;6.70;99.90
3275;DHT22;1649;53.672;10.064;2023-02-12T02:50:10;6.70;99.90
3275;DHT22;1649;53.672;10.064;2023-02-12T02:52:47;6.70;99.90
3275;DHT22;1649;53.672;10.064;2023-02-12T02:55:17;6.70;99.90
3275;DHT22;1649;53.672;10.064;2023-02-12T02:58:04;6.70;99.90
3275;DHT22;1649;53.672;10.064;2023-02-12T03:00:34;6.60;99.90
3275;DHT22;1649;53.672;10.064;2023-02-12T03:03:12;6.70;99.90
3275;DHT22;1649;53.672;10.064;2023-02-12T03:05:47;6.70;99.90
3275;DHT22;1649;53.672;10.064;2023-02-12T03:08:18;6.60;99.90
3275;DHT22;1649;53.672;10.064;2023-02-12T03:10:52;6.60;99.90
3275;DHT22;1649;53.672;10.064;2023-02-12T03:13:33;6.60;99.90
3275;DHT22;1649;53.672;10.064;2023-02-12T03:16:27;6.60;99.90
3275;DHT22;1649;53.672;10.064;2023-02-12T03:18:58;6.60;99.90
3275;DHT22;1649;53.672;10.064;2023-02-12T03:21:31;6.70;99.90
3275;DHT22;1649;53.672;10.064;2023-02-12T03:24:12;6.70;99.90
3275;DHT22;1649;53.672;10.064;2023-02-12T03:26:45;6.70;99.90
3275;DHT22;1649;53.672;10.064;2023-02-12T03:29:11;6.70;99.90
3275;DHT22;1649;53.672;10.064;2023-02-12T03:31:55;6.60;99.90
3275;DHT22;1649;53.672;10.064;2023-02-12T03:37:23;6.60;99.90
3275;DHT22;1649;53.672;10.064;2023-02-12T03:42:58;6.60;99.90
3275;DHT22;1649;53.672;10.064;2023-02-12T03:48:26;6.60;99.90
3275;DHT22;1649;53.672;10.064;2023-02-12T03:51:31;6.60;99.90
3275;DHT22;1649;53.672;10.064;2023-02-12T03:53:49;6.60;99.90
3275;DHT22;1649;53.672;10.064;2023-02-12T03:56:21;6.60;99.90
3275;DHT22;1649;53.672;10.064;2023-02-12T03:58:48;6.60;99.90
3275;DHT22;1649;53.672;10.064;2023-02-12T04:01:13;6.60;99.90
3275;DHT22;1649;53.672;10.064;2023-02-12T04:03:40;6.60;99.90
3275;DHT22;1649;53.672;10.064;2023-02-12T04:06:22;6.60;99.90
3275;DHT22;1649;53.672;10.064;2023-02-12T04:08:48;6.60;99.90
3275;DHT22;1649;53.672;10.064;2023-02-12T04:16:31;6.60;99.90
3275;DHT22;1649;53.672;10.064;2023-02-12T04:18:57;6.60;99.90
3275;DHT22;1649;53.672;10.064;2023-02-12T04:24:28;6.60;99.90
3275;DHT22;1649;53.672;10.064;2023-02-12T04:27:11;6.60;99.90
3275;DHT22;1649;53.672;10.064;2023-02-12T04:30:06;6.60;99.90
3275;DHT22;1649;53.672;10.064;2023-02-12T04:32:48;6.60;99.90
3275;DHT22;1649;53.672;10.064;2023-02-12T04:35:28;6.70;99.90
3275;DHT22;1649;53.672;10.064;2023-02-12T04:40:40;6.70;99.90
3275;DHT22;1649;53.672;10.064;2023-02-12T04:43:06;6.70;99.90
3275;DHT22;1649;53.672;10.064;2023-02-12T04:45:34;6.70;99.90
3275;DHT22;1649;53.672;10.064;2023-02-12T04:48:00;6.70;99.90
3275;DHT22;1649;53.672;10.064;2023-02-12T04:50:26;6.70;99.90
3275;DHT22;1649;53.672;10.064;2023-02-12T04:52:58;6.70;99.90
3275;DHT22;1649;53.672;10.064;2023-02-12T04:55:24;6.70;99.90
3275;DHT22;1649;53.672;10.064;2023-02-12T04:57:50;6.70;99.90
3275;DHT22;1649;53.672;10.064;2023-02-12T05:00:15;6.70;99.90
3275;DHT22;1649;53.672;10.064;2023-02-12T05:02:41;6.70;99.90
3275;DHT22;1649;53.672;10.064;2023-02-12T05:05:07;6.70;99.90
3275;DHT22;1649;53.672;10.064;2023-02-12T05:07:32;6.70;99.90
3275;DHT22;1649;53.672;10.064;2023-02-12T05:09:58;6.70;99.90
3275;DHT22;1649;53.672;10.064;2023-02-12T05:12:23;6.70;99.90
3275;DHT22;1649;53.672;10.064;2023-02-12T05:14:49;6.70;99.90
3275;DHT22;1649;53.672;10.064;2023-02-12T05:17:14;6.70;99.90
3275;DHT22;1649;53.672;10.064;2023-02-12T05:19:40;6.70;99.90
3275;DHT22;1649;53.672;10.064;2023-02-12T05:22:05;6.70;99.90
3275;DHT22;1649;53.672;10.064;2023-02-12T05:24:31;6.70;99.90
3275;DHT22;1649;53.672;10.064;2023-02-12T05:26:56;6.80;99.90
3275;DHT22;1649;53.672;10.064;2023-02-12T05:29:21;6.80;99.90
3275;DHT22;1649;53.672;10.064;2023-02-12T05:31:47;6.70;99.90
3275;DHT22;1649;53.672;10.064;2023-02-12T05:34:13;6.80;99.90
3275;DHT22;1649;53.672;10.064;2023-02-12T05:36:39;6.80;99.90
3275;DHT22;1649;53.672;10.064;2023-02-12T05:39:05;6.80;99.90
3275;DHT22;1649;53.672;10.064;2023-02-12T05:41:31;6.80;99.90
3275;DHT22;1649;53.672;10.064;2023-02-12T05:44:03;6.70;99.90
3275;DHT22;1649;53.672;10.064;2023-02-12T05:46:29;6.80;99.90
3275;DHT22;1649;53.672;10.064;2023-02-12T05:48:55;6.80;99.90
3275;DHT22;1649;53.672;10.064;2023-02-12T05:51:23;6.80;99.90
3275;DHT22;1649;53.672;10.064;2023-02-12T05:53:54;6.80;99.90
3275;DHT22;1649;53.672;10.064;2023-02-12T05:56:25;6.80;99.90
3275;DHT22;1649;53.672;10.064;2023-02-12T05:58:56;6.80;99.90
3275;DHT22;1649;53.672;10.064;2023-02-12T06:01:28;6.80;99.90
3275;DHT22;1649;53.672;10.064;2023-02-12T06:03:54;6.80;99.90
3275;DHT22;1649;53.672;10.064;2023-02-12T06:06:20;6.80;99.90
3275;DHT22;1649;53.672;10.064;2023-02-12T06:08:48;6.80;99.90
3275;DHT22;1649;53.672;10.064;2023-02-12T06:11:15;6.80;99.90
3275;DHT22;1649;53.672;10.064;2023-02-12T06:13:41;6.80;99.90
3275;DHT22;1649;53.672;10.064;2023-02-12T06:16:19;6.80;99.90
3275;DHT22;1649;53.672;10.064;2023-02-12T06:18:45;6.90;99.90
3275;DHT22;1649;53.672;10.064;2023-02-12T06:21:10;6.90;99.90
3275;DHT22;1649;53.672;10.064;2023-02-12T06:23:36;6.90;99.90
3275;DHT22;1649;53.672;10.064;2023-02-12T06:26:01;6.80;99.90
3275;DHT22;1649;53.672;10.064;2023-02-12T06:28:27;6.80;99.90
3275;DHT22;1649;53.672;10.064;2023-02-12T06:30:52;6.90;99.90
3275;DHT22;1649;53.672;10.064;2023-02-12T06:33:18;6.80;99.90
3275;DHT22;1649;53.672;10.064;2023-02-12T06:35:44;6.90;99.90
3275;DHT22;1649;53.672;10.064;2023-02-12T06:38:09;6.90;99.90
3275;DHT22;1649;53.672;10.064;2023-02-12T06:40:35;6.90;99.90
3275;DHT22;1649;53.672;10.064;2023-02-12T06:43:00;6.90;99.90
3275;DHT22;1649;53.672;10.064;2023-02-12T06:45:26;6.90;99.90
3275;DHT22;1649;53.672;10.064;2023-02-12T06:47:52;6.90;99.90
3275;DHT22;1649;53.672;10.064;2023-02-12T06:50:17;6.90;99.90
3275;DHT22;1649;53.672;10.064;2023-02-12T06:52:43;6.90;99.90
3275;DHT22;1649;53.672;10.064;2023-02-12T06:55:08;6.90;99.90
3275;DHT22;1649;53.672;10.064;2023-02-12T06:57:34;6.90;99.90
3275;DHT22;1649;53.672;10.064;2023-02-12T06:59:59;7.00;99.90
3275;DHT22;1649;53.672;10.064;2023-02-12T07:02:25;6.90;99.90
3275;DHT22;1649;53.672;10.064;2023-02-12T07:04:50;7.00;99.90
3275;DHT22;1649;53.672;10.064;2023-02-12T07:07:16;7.00;99.90
3275;DHT22;1649;53.672;10.064;2023-02-12T07:09:41;7.00;99.90
3275;DHT22;1649;53.672;10.064;2023-02-12T07:12:07;7.10;99.90
3275;DHT22;1649;53.672;10.064;2023-02-12T07:14:32;7.10;99.90
3275;DHT22;1649;53.672;10.064;2023-02-12T07:16:58;7.10;99.90
3275;DHT22;1649;53.672;10.064;2023-02-12T07:19:28;7.10;99.90
3275;DHT22;1649;53.672;10.064;2023-02-12T07:21:53;7.10;99.90
3275;DHT22;1649;53.672;10.064;2023-02-12T07:24:19;7.10;99.90
3275;DHT22;1649;53.672;10.064;2023-02-12T07:26:44;7.10;99.90
3275;DHT22;1649;53.672;10.064;2023-02-12T07:29:10;7.20;99.90
3275;DHT22;1649;53.672;10.064;2023-02-12T07:31:35;7.10;99.90
3275;DHT22;1649;53.672;10.064;2023-02-12T07:34:01;7.20;99.90
3275;DHT22;1649;53.672;10.064;2023-02-12T07:36:31;7.20;99.90
3275;DHT22;1649;53.672;10.064;2023-02-12T07:38:57;7.20;99.90
3275;DHT22;1649;53.672;10.064;2023-02-12T07:41:26;7.20;99.90
3275;DHT22;1649;53.672;10.064;2023-02-12T07:43:54;7.20;99.90
3275;DHT22;1649;53.672;10.064;2023-02-12T07:46:23;7.30;99.90
3275;DHT22;1649;53.672;10.064;2023-02-12T07:48:51;7.30;99.90
3275;DHT22;1649;53.672;10.064;2023-02-12T07:51:17;7.30;99.90
3275;DHT22;1649;53.672;10.064;2023-02-12T07:53:44;7.40;99.90
3275;DHT22;1649;53.672;10.064;2023-02-12T07:56:12;7.40;99.90
3275;DHT22;1649;53.672;10.064;2023-02-12T07:58:39;7.40;99.90
3275;DHT22;1649;53.672;10.064;2023-02-12T08:01:26;7.40;99.90
3275;DHT22;1649;53.672;10.064;2023-02-12T08:03:53;7.50;99.90
3275;DHT22;1649;53.672;10.064;2023-02-12T08:06:22;7.50;99.90
3275;DHT22;1649;53.672;10.064;2023-02-12T08:08:50;7.50;99.90
3275;DHT22;1649;53.672;10.064;2023-02-12T08:11:16;7.50;99.90
3275;DHT22;1649;53.672;10.064;2023-02-12T08:13:43;7.60;99.90
3275;DHT22;1649;53.672;10.064;2023-02-12T08:16:14;7.60;99.90
3275;DHT22;1649;53.672;10.064;2023-02-12T08:18:40;7.60;99.90
3275;DHT22;1649;53.672;10.064;2023-02-12T08:21:08;7.70;99.90
3275;DHT22;1649;53.672;10.064;2023-02-12T08:23:34;7.70;99.90
3275;DHT22;1649;53.672;10.064;2023-02-12T08:28:31;7.70;99.90
3275;DHT22;1649;53.672;10.064;2023-02-12T08:31:03;7.70;99.90
3275;DHT22;1649;53.672;10.064;2023-02-12T08:33:29;7.70;99.90
3275;DHT22;1649;53.672;10.064;2023-02-12T08:36:07;7.70;99.90
3275;DHT22;1649;53.672;10.064;2023-02-12T08:38:36;7.70;99.90
3275;DHT22;1649;53.672;10.064;2023-02-12T08:41:13;7.80;99.90
3275;DHT22;1649;53.672;10.064;2023-02-12T08:43:40;7.80;99.90
3275;DHT22;1649;53.672;10.064;2023-02-12T08:46:08;7.80;99.90
3275;DHT22;1649;53.672;10.064;2023-02-12T08:48:34;7.90;99.90
3275;DHT22;1649;53.672;10.064;2023-02-12T08:51:11;7.90;99.90
3275;DHT22;1649;53.672;10.064;2023-02-12T08:53:38;7.90;99.90
3275;DHT22;1649;53.672;10.064;2023-02-12T08:56:07;7.90;99.90
3275;DHT22;1649;53.672;10.064;2023-02-12T08:58:34;8.00;99.90
3275;DHT22;1649;53.672;10.064;2023-02-12T09:01:01;7.90;99.90
3275;DHT22;1649;53.672;10.064;2023-02-12T09:03:26;8.00;99.90
3275;DHT22;1649;53.672;10.064;2023-02-12T09:05:52;8.00;99.90
3275;DHT22;1649;53.672;10.064;2023-02-12T09:08:17;8.00;99.90
3275;DHT22;1649;53.672;10.064;2023-02-12T09:10:44;8.00;99.90
3275;DHT22;1649;53.672;10.064;2023-02-12T09:13:11;8.00;99.90
3275;DHT22;1649;53.672;10.064;2023-02-12T09:15:38;8.00;99.90
3275;DHT22;1649;53.672;10.064;2023-02-12T09:18:04;8.00;99.90
3275;DHT22;1649;53.672;10.064;2023-02-12T09:20:30;8.00;99.90
3275;DHT22;1649;53.672;10.064;2023-02-12T09:22:57;8.00;99.90
3275;DHT22;1649;53.672;10.064;2023-02-12T09:25:23;8.10;99.90
3275;DHT22;1649;53.672;10.064;2023-02-12T09:27:48;8.10;99.90
3275;DHT22;1649;53.672;10.064;2023-02-12T09:30:14;8.10;99.90
3275;DHT22;1649;53.672;10.064;2023-02-12T09:32:40;8.10;99.90
3275;DHT22;1649;53.672;10.064;2023-02-12T09:35:05;8.20;99.90
3275;DHT22;1649;53.672;10.064;2023-02-12T09:37:31;8.20;99.90
3275;DHT22;1649;53.672;10.064;2023-02-12T09:39:56;8.30;99.90
3275;DHT22;1649;53.672;10.064;2023-02-12T09:45:29;8.30;99.90
3275;DHT22;1649;53.672;10.064;2023-02-12T09:50:57;8.50;99.90
3275;DHT22;1649;53.672;10.064;2023-02-12T09:53:26;8.50;99.90
3275;DHT22;1649;53.672;10.064;2023-02-12T09:55:53;8.50;99.90
3275;DHT22;1649;53.672;10.064;2023-02-12T09:58:33;8.40;99.90
3275;DHT22;1649;53.672;10.064;2023-02-12T10:01:05;8.50;99.90
3275;DHT22;1649;53.672;10.064;2023-02-12T10:03:34;8.50;99.90
3275;DHT22;1649;53.672;10.064;2023-02-12T10:06:03;8.50;99.90
3275;DHT22;1649;53.672;10.064;2023-02-12T10:11:27;8.50;99.90
3275;DHT22;1649;53.672;10.064;2023-02-12T10:14:24;8.50;99.90
3275;DHT22;1649;53.672;10.064;2023-02-12T10:16:55;8.40;99.90
3275;DHT22;1649;53.672;10.064;2023-02-12T10:22:13;8.40;99.90
3275;DHT22;1649;53.672;10.064;2023-02-12T10:25:03;8.40;99.90
3275;DHT22;1649;53.672;10.064;2023-02-12T10:30:21;8.40;99.90
3275;DHT22;1649;53.672;10.064;2023-02-12T10:32:52;8.40;99.90
3275;DHT22;1649;53.672;10.064;2023-02-12T10:35:20;8.40;99.90
3275;DHT22;1649;53.672;10.064;2023-02-12T10:37:55;8.40;99.90
3275;DHT22;1649;53.672;10.064;2023-02-12T10:40:25;8.30;99.90
3275;DHT22;1649;53.672;10.064;2023-02-12T10:42:55;8.30;99.90
3275;DHT22;1649;53.672;10.064;2023-02-12T10:45:32;8.30;99.90
3275;DHT22;1649;53.672;10.064;2023-02-12T10:48:08;8.30;99.90
3275;DHT22;1649;53.672;10.064;2023-02-12T10:53:14;8.40;99.90
3275;DHT22;1649;53.672;10.064;2023-02-12T10:55:40;8.40;99.90
3275;DHT22;1649;53.672;10.064;2023-02-12T10:58:21;8.40;99.90
3275;DHT22;1649;53.672;10.064;2023-02-12T11:00:59;8.40;99.90
3275;DHT22;1649;53.672;10.064;2023-02-12T11:03:32;8.40;99.90
3275;DHT22;1649;53.672;10.064;2023-02-12T11:08:38;8.40;99.90
3275;DHT22;1649;53.672;10.064;2023-02-12T11:11:28;8.40;99.90
3275;DHT22;1649;53.672;10.064;2023-02-12T11:14:05;8.40;99.90
3275;DHT22;1649;53.672;10.064;2023-02-12T11:16:33;8.40;99.90
3275;DHT22;1649;53.672;10.064;2023-02-12T11:19:05;8.40;99.90
3275;DHT22;1649;53.672;10.064;2023-02-12T11:21:32;8.40;99.90
3275;DHT22;1649;53.672;10.064;2023-02-12T11:24:19;8.40;99.90
3275;DHT22;1649;53.672;10.064;2023-02-12T11:26:45;8.40;99.90
3275;DHT22;1649;53.672;10.064;2023-02-12T11:29:20;8.40;99.90
3275;DHT22;1649;53.672;10.064;2023-02-12T11:32:06;8.50;99.90
3275;DHT22;1649;53.672;10.064;2023-02-12T11:34:36;8.50;99.90
3275;DHT22;1649;53.672;10.064;2023-02-12T11:37:02;8.50;99.90
3275;DHT22;1649;53.672;10.064;2023-02-12T11:39:35;8.50;99.90
3275;DHT22;1649;53.672;10.064;2023-02-12T11:42:05;8.50;99.90
3275;DHT22;1649;53.672;10.064;2023-02-12T11:44:41;8.50;99.90
3275;DHT22;1649;53.672;10.064;2023-02-12T11:47:10;8.50;99.90
3275;DHT22;1649;53.672;10.064;2023-02-12T11:49:49;8.50;99.90
3275;DHT22;1649;53.672;10.064;2023-02-12T11:52:27;8.50;99.90
3275;DHT22;1649;53.672;10.064;2023-02-12T11:54:56;8.60;99.90
3275;DHT22;1649;53.672;10.064;2023-02-12T12:00:04;8.60;99.90
3275;DHT22;1649;53.672;10.064;2023-02-12T12:02:36;8.60;99.90
3275;DHT22;1649;53.672;10.064;2023-02-12T12:05:12;8.60;99.90
3275;DHT22;1649;53.672;10.064;2023-02-12T12:07:43;8.50;99.90
3275;DHT22;1649;53.672;10.064;2023-02-12T12:10:17;8.50;99.90
3275;DHT22;1649;53.672;10.064;2023-02-12T12:12:48;8.50;99.90
3275;DHT22;1649;53.672;10.064;2023-02-12T12:15:28;8.50;99.90
3275;DHT22;1649;53.672;10.064;2023-02-12T12:18:20;8.50;99.90
3275;DHT22;1649;53.672;10.064;2023-02-12T12:24:37;8.70;99.90
3275;DHT22;1649;53.672;10.064;2023-02-12T12:27:17;8.70;99.90
3275;DHT22;1649;53.672;10.064;2023-02-12T12:30:07;8.80;99.90
3275;DHT22;1649;53.672;10.064;2023-02-12T12:32:36;8.80;99.90
3275;DHT22;1649;53.672;10.064;2023-02-12T12:35:08;8.80;99.90
3275;DHT22;1649;53.672;10.064;2023-02-12T12:37:43;8.80;99.90
3275;DHT22;1649;53.672;10.064;2023-02-12T12:43:12;8.80;99.90
3275;DHT22;1649;53.672;10.064;2023-02-12T12:46:08;8.90;99.90
3275;DHT22;1649;53.672;10.064;2023-02-12T12:48:45;8.90;99.90
3275;DHT22;1649;53.672;10.064;2023-02-12T12:51:35;8.90;99.90
3275;DHT22;1649;53.672;10.064;2023-02-12T12:57:09;8.80;99.90
3275;DHT22;1649;53.672;10.064;2023-02-12T12:59:55;8.80;99.90
3275;DHT22;1649;53.672;10.064;2023-02-12T13:10:57;8.80;99.90
3275;DHT22;1649;53.672;10.064;2023-02-12T13:13:39;8.80;99.90
3275;DHT22;1649;53.672;10.064;2023-02-12T13:16:20;8.90;99.90
3275;DHT22;1649;53.672;10.064;2023-02-12T13:26:53;8.70;99.90
3275;DHT22;1649;53.672;10.064;2023-02-12T13:29:34;8.70;99.90
3275;DHT22;1649;53.672;10.064;2023-02-12T13:32:05;8.70;99.90
3275;DHT22;1649;53.672;10.064;2023-02-12T13:34:33;8.70;99.90
3275;DHT22;1649;53.672;10.064;2023-02-12T13:37:02;8.70;99.90
3275;DHT22;1649;53.672;10.064;2023-02-12T13:39:33;8.80;99.90
3275;DHT22;1649;53.672;10.064;2023-02-12T13:44:39;8.90;99.90
3275;DHT22;1649;53.672;10.064;2023-02-12T13:49:49;8.80;99.90
3275;DHT22;1649;53.672;10.064;2023-02-12T13:52:35;8.80;99.90
3275;DHT22;1649;53.672;10.064;2023-02-12T13:55:20;8.70;99.90
3275;DHT22;1649;53.672;10.064;2023-02-12T14:03:15;8.60;99.90
3275;DHT22;1649;53.672;10.064;2023-02-12T14:05:47;8.60;99.90
3275;DHT22;1649;53.672;10.064;2023-02-12T14:08:36;8.60;99.90
3275;DHT22;1649;53.672;10.064;2023-02-12T14:11:08;8.60;99.90
3275;DHT22;1649;53.672;10.064;2023-02-12T14:21:58;8.50;99.90
3275;DHT22;1649;53.672;10.064;2023-02-12T14:24:51;8.50;99.90
3275;DHT22;1649;53.672;10.064;2023-02-12T14:30:20;8.50;99.90
3275;DHT22;1649;53.672;10.064;2023-02-12T14:37:53;8.50;99.90
3275;DHT22;1649;53.672;10.064;2023-02-12T14:43:01;8.50;99.90
3275;DHT22;1649;53.672;10.064;2023-02-12T14:45:35;8.50;99.90
3275;DHT22;1649;53.672;10.064;2023-02-12T14:48:02;8.50;99.90
3275;DHT22;1649;53.672;10.064;2023-02-12T14:50:37;8.50;99.90
3275;DHT22;1649;53.672;10.064;2023-02-12T14:53:24;8.50;99.90
3275;DHT22;1649;53.672;10.064;2023-02-12T14:55:51;8.50;99.90
3275;DHT22;1649;53.672;10.064;2023-02-12T14:58:19;8.50;99.90
3275;DHT22;1649;53.672;10.064;2023-02-12T15:00:46;8.50;99.90
3275;DHT22;1649;53.672;10.064;2023-02-12T15:08:35;8.40;99.90
3275;DHT22;1649;53.672;10.064;2023-02-12T15:11:13;8.40;99.90
3275;DHT22;1649;53.672;10.064;2023-02-12T15:16:53;8.40;99.90
3275;DHT22;1649;53.672;10.064;2023-02-12T15:19:39;8.30;99.90
3275;DHT22;1649;53.672;10.064;2023-02-12T15:22:31;8.30;99.90
3275;DHT22;1649;53.672;10.064;2023-02-12T15:25:24;8.30;99.90
3275;DHT22;1649;53.672;10.064;2023-02-12T15:27:54;8.30;99.90
3275;DHT22;1649;53.672;10.064;2023-02-12T15:30:33;8.20;99.90
3275;DHT22;1649;53.672;10.064;2023-02-12T15:33:03;8.20;99.90
3275;DHT22;1649;53.672;10.064;2023-02-12T15:35:32;8.20;99.90
3275;DHT22;1649;53.672;10.064;2023-02-12T15:37:58;8.10;99.90
3275;DHT22;1649;53.672;10.064;2023-02-12T15:40:29;8.10;99.90
3275;DHT22;1649;53.672;10.064;2023-02-12T15:43:15;8.10;99.90
3275;DHT22;1649;53.672;10.064;2023-02-12T15:45:49;8.10;99.90
3275;DHT22;1649;53.672;10.064;2023-02-12T15:48:21;8.10;99.90
3275;DHT22;1649;53.672;10.064;2023-02-12T15:53:23;8.10;99.90
3275;DHT22;1649;53.672;10.064;2023-02-12T15:55:50;8.10;99.90
3275;DHT22;1649;53.672;10.064;2023-02-12T15:58:30;8.10;99.90
3275;DHT22;1649;53.672;10.064;2023-02-12T16:01:03;8.00;99.90
3275;DHT22;1649;53.672;10.064;2023-02-12T16:03:31;7.90;99.90
3275;DHT22;1649;53.672;10.064;2023-02-12T16:06:09;8.00;99.90
3275;DHT22;1649;53.672;10.064;2023-02-12T16:08:38;8.00;99.90
3275;DHT22;1649;53.672;10.064;2023-02-12T16:11:05;8.00;99.90
3275;DHT22;1649;53.672;10.064;2023-02-12T16:13:51;7.90;99.90
3275;DHT22;1649;53.672;10.064;2023-02-12T16:19:06;7.90;99.90
3275;DHT22;1649;53.672;10.064;2023-02-12T16:21:35;7.90;99.90
3275;DHT22;1649;53.672;10.064;2023-02-12T16:24:02;7.90;99.90
3275;DHT22;1649;53.672;10.064;2023-02-12T16:26:28;7.80;99.90
3275;DHT22;1649;53.672;10.064;2023-02-12T16:28:55;7.90;99.90
3275;DHT22;1649;53.672;10.064;2023-02-12T16:31:23;7.80;99.90
3275;DHT22;1649;53.672;10.064;2023-02-12T16:33:51;7.80;99.90
3275;DHT22;1649;53.672;10.064;2023-02-12T16:38:57;7.80;99.90
3275;DHT22;1649;53.672;10.064;2023-02-12T16:41:34;7.70;99.90
3275;DHT22;1649;53.672;10.064;2023-02-12T16:46:50;7.70;99.90
3275;DHT22;1649;53.672;10.064;2023-02-12T16:49:18;7.70;99.90
3275;DHT22;1649;53.672;10.064;2023-02-12T16:51:45;7.70;99.90
3275;DHT22;1649;53.672;10.064;2023-02-12T16:54:33;7.70;99.90
3275;DHT22;1649;53.672;10.064;2023-02-12T16:57:00;7.70;99.90
3275;DHT22;1649;53.672;10.064;2023-02-12T16:59:27;7.60;99.90
3275;DHT22;1649;53.672;10.064;2023-02-12T17:02:08;7.70;99.90
3275;DHT22;1649;53.672;10.064;2023-02-12T17:04:34;7.70;99.90
3275;DHT22;1649;53.672;10.064;2023-02-12T17:07:00;7.60;99.90
3275;DHT22;1649;53.672;10.064;2023-02-12T17:09:26;7.70;99.90
3275;DHT22;1649;53.672;10.064;2023-02-12T17:11:53;7.70;99.90
3275;DHT22;1649;53.672;10.064;2023-02-12T17:14:19;7.70;99.90
3275;DHT22;1649;53.672;10.064;2023-02-12T17:16:46;7.70;99.90
3275;DHT22;1649;53.672;10.064;2023-02-12T17:19:11;7.70;99.90
3275;DHT22;1649;53.672;10.064;2023-02-12T17:21:40;7.60;99.90
3275;DHT22;1649;53.672;10.064;2023-02-12T17:24:21;7.60;99.90
3275;DHT22;1649;53.672;10.064;2023-02-12T17:26:49;7.70;99.90
3275;DHT22;1649;53.672;10.064;2023-02-12T17:29:18;7.70;99.90
3275;DHT22;1649;53.672;10.064;2023-02-12T17:31:44;7.60;99.90
3275;DHT22;1649;53.672;10.064;2023-02-12T17:34:10;7.60;99.90
3275;DHT22;1649;53.672;10.064;2023-02-12T17:36:35;7.60;99.90
3275;DHT22;1649;53.672;10.064;2023-02-12T17:39:03;7.60;99.90
3275;DHT22;1649;53.672;10.064;2023-02-12T17:41:29;7.60;99.90
3275;DHT22;1649;53.672;10.064;2023-02-12T17:43:55;7.50;99.90
3275;DHT22;1649;53.672;10.064;2023-02-12T17:46:23;7.50;99.90
3275;DHT22;1649;53.672;10.064;2023-02-12T17:48:49;7.60;99.90
3275;DHT22;1649;53.672;10.064;2023-02-12T17:51:15;7.50;99.90
3275;DHT22;1649;53.672;10.064;2023-02-12T17:53:41;7.50;99.90
3275;DHT22;1649;53.672;10.064;2023-02-12T17:56:17;7.50;99.90
3275;DHT22;1649;53.672;10.064;2023-02-12T17:58:43;7.50;99.90
3275;DHT22;1649;53.672;10.064;2023-02-12T18:01:12;7.50;99.90
3275;DHT22;1649;53.672;10.064;2023-02-12T18:03:38;7.50;99.90
3275;DHT22;1649;53.672;10.064;2023-02-12T18:06:04;7.50;99.90
3275;DHT22;1649;53.672;10.064;2023-02-12T18:08:31;7.50;99.90
3275;DHT22;1649;53.672;10.064;2023-02-12T18:10:56;7.50;99.90
3275;DHT22;1649;53.672;10.064;2023-02-12T18:13:22;7.50;99.90
3275;DHT22;1649;53.672;10.064;2023-02-12T18:15:48;7.50;99.90
3275;DHT22;1649;53.672;10.064;2023-02-12T18:18:13;7.50;99.90
3275;DHT22;1649;53.672;10.064;2023-02-12T18:20:41;7.50;99.90
3275;DHT22;1649;53.672;10.064;2023-02-12T18:23:07;7.50;99.90
3275;DHT22;1649;53.672;10.064;2023-02-12T18:25:41;7.50;99.90
3275;DHT22;1649;53.672;10.064;2023-02-12T18:28:07;7.50;99.90
3275;DHT22;1649;53.672;10.064;2023-02-12T18:30:32;7.50;99.90
3275;DHT22;1649;53.672;10.064;2023-02-12T18:32:58;7.50;99.90
3275;DHT22;1649;53.672;10.064;2023-02-12T18:35:23;7.50;99.90
3275;DHT22;1649;53.672;10.064;2023-02-12T18:37:49;7.50;99.90
3275;DHT22;1649;53.672;10.064;2023-02-12T18:40:15;7.50;99.90